sensor_id;sensor_type;location;lat;lon;timestamp;pressure;altitude;pressure_sealevel;temperature;humidity
21395;BME280;10858;42.714;23.180;2023-02-12T00:01:11;95364.69;;;0.06;48.08
21395;BME280;10858;42.714;23.180;2023-02-12T00:03:38;95369.72;;;0.38;48.57
21395;BME280;10858;42.714;23.180;2023-02-12T00:06:06;95373.69;;;0.23;49.14
21395;BME280;10858;42.714;23.180;2023-02-12T00:08:33;95379.75;;;0.24;48.40
21395;BME280;10858;42.714;23.180;2023-02-12T00:11:05;95378.28;;;0.15;48.74
21395;BME280;10858;42.714;23.180;2023-02-12T00:13:31;95386.72;;;0.23;49.23
21395;BME280;10858;42.714;23.180;2023-02-12T00:15:58;95383.38;;;0.20;48.11
21395;BME280;10858;42.714;23.180;2023-02-12T00:18:24;95387.53;;;0.25;48.32
21395;BME280;10858;42.714;23.180;2023-02-12T00:20:50;95388.66;;;0.17;49.12
21395;BME280;10858;42.714;23.180;2023-02-12T00:23:16;95381.16;;;0.08;48.89
21395;BME280;10858;42.714;23.180;2023-02-12T00:25:43;95389.25;;;-0.02;48.93
21395;BME280;10858;42.714;23.180;2023-02-12T00:28:09;95383.28;;;-0.05;49.97
21395;BME280;10858;42.714;23.180;2023-02-12T00:30:36;95378.06;;;-0.05;49.24
21395;BME280;10858;42.714;23.180;2023-02-12T00:33:02;95367.19;;;0.09;49.45
21395;BME280;10858;42.714;23.180;2023-02-12T00:35:28;95360.41;;;0.03;49.34
21395;BME280;10858;42.714;23.180;2023-02-12T00:37:54;95361.72;;;0.16;48.87
21395;BME280;10858;42.714;23.180;2023-02-12T00:40:21;95362.63;;;-0.11;50.01
21395;BME280;10858;42.714;23.180;2023-02-12T00:42:47;95365.75;;;-0.28;50.58
21395;BME280;10858;42.714;23.180;2023-02-12T00:45:13;95362.91;;;0.08;49.77
21395;BME280;10858;42.714;23.180;2023-02-12T00:47:39;95352.19;;;-0.11;50.14
21395;BME280;10858;42.714;23.180;2023-02-12T00:50:06;95348.44;;;-0.03;49.67
21395;BME280;10858;42.714;23.180;2023-02-12T00:52:32;95340.09;;;0.39;48.71
21395;BME280;10858;42.714;23.180;2023-02-12T00:54:58;95338.25;;;0.67;48.23
21395;BME280;10858;42.714;23.180;2023-02-12T00:57:26;95326.47;;;0.80;47.16
21395;BME280;10858;42.714;23.180;2023-02-12T00:59:52;95320.97;;;0.88;47.33
21395;BME280;10858;42.714;23.180;2023-02-12T01:02:18;95333.66;;;0.98;47.35
21395;BME280;10858;42.714;23.180;2023-02-12T01:04:45;95329.66;;;1.11;46.78
21395;BME280;10858;42.714;23.180;2023-02-12T01:07:11;95323.63;;;1.09;47.09
21395;BME280;10858;42.714;23.180;2023-02-12T01:09:37;95326.09;;;1.14;46.84
21395;BME280;10858;42.714;23.180;2023-02-12T01:12:04;95327.53;;;1.22;47.01
21395;BME280;10858;42.714;23.180;2023-02-12T01:14:31;95331.38;;;1.35;46.72
21395;BME280;10858;42.714;23.180;2023-02-12T01:16:57;95335.56;;;1.39;47.26
21395;BME280;10858;42.714;23.180;2023-02-12T01:19:23;95328.94;;;1.52;47.00
21395;BME280;10858;42.714;23.180;2023-02-12T01:21:49;95334.25;;;1.51;46.79
21395;BME280;10858;42.714;23.180;2023-02-12T01:24:16;95334.88;;;1.57;47.09
21395;BME280;10858;42.714;23.180;2023-02-12T01:26:42;95346.44;;;1.73;47.40
21395;BME280;10858;42.714;23.180;2023-02-12T01:29:09;95351.06;;;1.67;47.12
21395;BME280;10858;42.714;23.180;2023-02-12T01:31:37;95340.78;;;1.39;47.89
21395;BME280;10858;42.714;23.180;2023-02-12T01:34:05;95337.50;;;1.34;47.84
21395;BME280;10858;42.714;23.180;2023-02-12T01:36:32;95340.59;;;1.22;48.38
21395;BME280;10858;42.714;23.180;2023-02-12T01:38:58;95333.28;;;1.07;48.56
21395;BME280;10858;42.714;23.180;2023-02-12T01:41:33;95320.69;;;0.95;48.84
21395;BME280;10858;42.714;23.180;2023-02-12T01:46:33;95323.13;;;1.00;49.84
21395;BME280;10858;42.714;23.180;2023-02-12T01:49:00;95313.41;;;0.80;49.70
21395;BME280;10858;42.714;23.180;2023-02-12T01:51:28;95308.19;;;0.80;50.05
21395;BME280;10858;42.714;23.180;2023-02-12T01:53:57;95302.97;;;0.80;49.62
21395;BME280;10858;42.714;23.180;2023-02-12T01:56:27;95317.56;;;0.85;49.61
21395;BME280;10858;42.714;23.180;2023-02-12T01:58:54;95313.81;;;0.93;49.77
21395;BME280;10858;42.714;23.180;2023-02-12T02:01:25;95310.22;;;0.72;50.34
21395;BME280;10858;42.714;23.180;2023-02-12T02:03:58;95309.94;;;0.55;51.13
21395;BME280;10858;42.714;23.180;2023-02-12T02:06:32;95306.59;;;0.51;50.35
21395;BME280;10858;42.714;23.180;2023-02-12T02:08:59;95318.38;;;0.63;49.94
21395;BME280;10858;42.714;23.180;2023-02-12T02:11:26;95311.66;;;0.56;50.70
21395;BME280;10858;42.714;23.180;2023-02-12T02:14:10;95307.88;;;0.64;50.18
21395;BME280;10858;42.714;23.180;2023-02-12T02:23:16;95297.16;;;0.72;49.45
21395;BME280;10858;42.714;23.180;2023-02-12T02:31:16;95289.72;;;0.84;49.20
21395;BME280;10858;42.714;23.180;2023-02-12T02:39:34;95303.25;;;1.42;48.42
21395;BME280;10858;42.714;23.180;2023-02-12T02:45:14;95295.28;;;1.66;47.74
21395;BME280;10858;42.714;23.180;2023-02-12T02:47:48;95289.00;;;1.70;48.09
21395;BME280;10858;42.714;23.180;2023-02-12T02:50:20;95300.94;;;1.56;48.60
21395;BME280;10858;42.714;23.180;2023-02-12T02:53:05;95300.19;;;1.52;48.00
21395;BME280;10858;42.714;23.180;2023-02-12T02:55:37;95299.22;;;1.33;48.28
21395;BME280;10858;42.714;23.180;2023-02-12T03:00:53;95298.13;;;1.60;48.28
21395;BME280;10858;42.714;23.180;2023-02-12T03:03:41;95298.56;;;1.71;48.08
21395;BME280;10858;42.714;23.180;2023-02-12T03:06:19;95301.34;;;1.89;48.43
21395;BME280;10858;42.714;23.180;2023-02-12T03:08:52;95298.97;;;1.83;48.50
21395;BME280;10858;42.714;23.180;2023-02-12T03:11:33;95301.09;;;1.95;47.89
21395;BME280;10858;42.714;23.180;2023-02-12T03:14:11;95300.47;;;1.90;47.88
21395;BME280;10858;42.714;23.180;2023-02-12T03:16:53;95293.25;;;1.95;47.72
21395;BME280;10858;42.714;23.180;2023-02-12T03:19:25;95286.94;;;2.00;48.20
21395;BME280;10858;42.714;23.180;2023-02-12T03:22:05;95290.50;;;2.19;47.49
21395;BME280;10858;42.714;23.180;2023-02-12T03:27:43;95285.59;;;2.12;48.08
21395;BME280;10858;42.714;23.180;2023-02-12T03:30:12;95288.16;;;1.92;48.45
21395;BME280;10858;42.714;23.180;2023-02-12T03:36:14;95281.56;;;2.03;48.62
21395;BME280;10858;42.714;23.180;2023-02-12T03:38:51;95282.97;;;2.12;48.27
21395;BME280;10858;42.714;23.180;2023-02-12T03:41:31;95271.72;;;2.10;48.42
21395;BME280;10858;42.714;23.180;2023-02-12T03:44:09;95271.19;;;2.02;48.57
21395;BME280;10858;42.714;23.180;2023-02-12T03:50:43;95274.22;;;2.33;48.26
21395;BME280;10858;42.714;23.180;2023-02-12T03:52:35;95279.25;;;2.57;48.25
21395;BME280;10858;42.714;23.180;2023-02-12T03:55:02;95274.91;;;2.77;47.53
21395;BME280;10858;42.714;23.180;2023-02-12T03:57:32;95279.59;;;2.70;47.51
21395;BME280;10858;42.714;23.180;2023-02-12T04:00:14;95283.63;;;2.57;47.79
21395;BME280;10858;42.714;23.180;2023-02-12T04:02:41;95271.03;;;2.46;47.92
21395;BME280;10858;42.714;23.180;2023-02-12T04:05:15;95270.44;;;2.40;48.61
21395;BME280;10858;42.714;23.180;2023-02-12T04:07:42;95269.56;;;2.39;48.31
21395;BME280;10858;42.714;23.180;2023-02-12T04:10:09;95268.59;;;2.22;49.35
21395;BME280;10858;42.714;23.180;2023-02-12T04:18:20;95272.31;;;2.16;49.43
21395;BME280;10858;42.714;23.180;2023-02-12T04:25:56;95288.09;;;2.55;48.83
21395;BME280;10858;42.714;23.180;2023-02-12T04:31:26;95297.47;;;2.99;47.78
21395;BME280;10858;42.714;23.180;2023-02-12T04:36:32;95297.53;;;3.36;47.24
21395;BME280;10858;42.714;23.180;2023-02-12T04:39:04;95296.47;;;3.22;47.67
21395;BME280;10858;42.714;23.180;2023-02-12T04:41:36;95300.78;;;3.23;47.33
21395;BME280;10858;42.714;23.180;2023-02-12T04:44:18;95298.38;;;3.18;48.20
21395;BME280;10858;42.714;23.180;2023-02-12T04:46:47;95306.16;;;3.20;48.00
21395;BME280;10858;42.714;23.180;2023-02-12T04:49:15;95308.72;;;3.21;47.89
21395;BME280;10858;42.714;23.180;2023-02-12T04:51:42;95308.44;;;3.27;48.05
21395;BME280;10858;42.714;23.180;2023-02-12T04:54:09;95321.53;;;3.27;47.91
21395;BME280;10858;42.714;23.180;2023-02-12T04:56:35;95322.06;;;3.35;47.17
21395;BME280;10858;42.714;23.180;2023-02-12T04:59:01;95324.38;;;3.23;48.05
21395;BME280;10858;42.714;23.180;2023-02-12T05:01:27;95324.66;;;2.97;48.06
21395;BME280;10858;42.714;23.180;2023-02-12T05:03:54;95332.09;;;2.87;48.60
21395;BME280;10858;42.714;23.180;2023-02-12T05:06:20;95327.31;;;2.77;49.38
21395;BME280;10858;42.714;23.180;2023-02-12T05:08:46;95338.19;;;2.68;49.70
21395;BME280;10858;42.714;23.180;2023-02-12T05:11:12;95336.09;;;2.76;49.13
21395;BME280;10858;42.714;23.180;2023-02-12T05:13:38;95340.19;;;2.41;49.28
21395;BME280;10858;42.714;23.180;2023-02-12T05:16:07;95346.41;;;2.58;49.46
21395;BME280;10858;42.714;23.180;2023-02-12T05:18:35;95356.41;;;2.29;49.50
21395;BME280;10858;42.714;23.180;2023-02-12T05:21:03;95354.00;;;2.24;49.84
21395;BME280;10858;42.714;23.180;2023-02-12T05:23:31;95358.94;;;2.10;51.01
21395;BME280;10858;42.714;23.180;2023-02-12T05:25:59;95364.69;;;1.97;51.38
21395;BME280;10858;42.714;23.180;2023-02-12T05:28:26;95366.09;;;1.84;53.39
21395;BME280;10858;42.714;23.180;2023-02-12T05:30:52;95370.28;;;1.66;53.68
21395;BME280;10858;42.714;23.180;2023-02-12T05:33:19;95375.44;;;1.44;55.32
21395;BME280;10858;42.714;23.180;2023-02-12T05:35:45;95374.09;;;1.57;55.75
21395;BME280;10858;42.714;23.180;2023-02-12T05:38:11;95377.03;;;1.93;54.90
21395;BME280;10858;42.714;23.180;2023-02-12T05:40:37;95378.63;;;1.76;55.56
21395;BME280;10858;42.714;23.180;2023-02-12T05:43:05;95376.31;;;1.68;55.97
21395;BME280;10858;42.714;23.180;2023-02-12T05:45:32;95380.47;;;1.95;55.29
21395;BME280;10858;42.714;23.180;2023-02-12T05:47:58;95378.94;;;1.90;55.92
21395;BME280;10858;42.714;23.180;2023-02-12T05:50:24;95381.22;;;1.76;56.56
21395;BME280;10858;42.714;23.180;2023-02-12T05:52:51;95376.69;;;1.57;57.81
21395;BME280;10858;42.714;23.180;2023-02-12T05:55:17;95372.56;;;1.52;58.30
21395;BME280;10858;42.714;23.180;2023-02-12T05:57:43;95381.81;;;1.60;58.88
21395;BME280;10858;42.714;23.180;2023-02-12T06:00:10;95381.06;;;1.57;60.08
21395;BME280;10858;42.714;23.180;2023-02-12T06:02:37;95385.91;;;1.44;61.71
21395;BME280;10858;42.714;23.180;2023-02-12T06:05:03;95389.22;;;1.49;62.68
21395;BME280;10858;42.714;23.180;2023-02-12T06:07:29;95386.19;;;1.60;62.68
21395;BME280;10858;42.714;23.180;2023-02-12T06:09:55;95392.03;;;1.66;62.72
21395;BME280;10858;42.714;23.180;2023-02-12T06:12:22;95389.28;;;1.93;62.50
21395;BME280;10858;42.714;23.180;2023-02-12T06:14:48;95390.69;;;2.23;61.47
21395;BME280;10858;42.714;23.180;2023-02-12T06:17:14;95388.69;;;2.08;62.02
21395;BME280;10858;42.714;23.180;2023-02-12T06:19:41;95392.50;;;2.21;62.92
21395;BME280;10858;42.714;23.180;2023-02-12T06:22:07;95395.25;;;1.96;64.51
21395;BME280;10858;42.714;23.180;2023-02-12T06:24:34;95388.63;;;1.88;65.85
21395;BME280;10858;42.714;23.180;2023-02-12T06:27:02;95391.53;;;2.02;66.43
21395;BME280;10858;42.714;23.180;2023-02-12T06:29:28;95386.94;;;2.08;66.95
21395;BME280;10858;42.714;23.180;2023-02-12T06:31:54;95382.03;;;2.21;66.85
21395;BME280;10858;42.714;23.180;2023-02-12T06:34:20;95386.72;;;2.13;67.44
21395;BME280;10858;42.714;23.180;2023-02-12T06:36:47;95376.75;;;2.22;67.62
21395;BME280;10858;42.714;23.180;2023-02-12T06:39:15;95386.00;;;2.31;66.57
21395;BME280;10858;42.714;23.180;2023-02-12T06:41:42;95389.78;;;2.24;67.09
21395;BME280;10858;42.714;23.180;2023-02-12T06:44:10;95388.31;;;2.38;66.74
21395;BME280;10858;42.714;23.180;2023-02-12T06:46:37;95378.41;;;2.45;66.04
21395;BME280;10858;42.714;23.180;2023-02-12T06:49:03;95386.16;;;2.48;65.69
21395;BME280;10858;42.714;23.180;2023-02-12T06:51:30;95374.19;;;2.21;65.49
21395;BME280;10858;42.714;23.180;2023-02-12T06:53:57;95376.75;;;2.22;65.97
21395;BME280;10858;42.714;23.180;2023-02-12T06:56:24;95381.03;;;2.45;65.55
21395;BME280;10858;42.714;23.180;2023-02-12T06:58:56;95374.47;;;2.77;64.53
21395;BME280;10858;42.714;23.180;2023-02-12T07:01:24;95377.16;;;2.75;64.07
21395;BME280;10858;42.714;23.180;2023-02-12T07:03:54;95381.78;;;2.69;64.53
21395;BME280;10858;42.714;23.180;2023-02-12T07:06:21;95382.47;;;2.74;64.21
21395;BME280;10858;42.714;23.180;2023-02-12T07:08:48;95389.03;;;3.04;62.97
21395;BME280;10858;42.714;23.180;2023-02-12T07:11:15;95390.66;;;3.06;63.47
21395;BME280;10858;42.714;23.180;2023-02-12T07:13:42;95388.63;;;3.52;62.27
21395;BME280;10858;42.714;23.180;2023-02-12T07:16:12;95384.66;;;3.23;62.49
21395;BME280;10858;42.714;23.180;2023-02-12T07:18:39;95383.31;;;3.14;62.78
21395;BME280;10858;42.714;23.180;2023-02-12T07:21:06;95377.94;;;3.17;62.89
21395;BME280;10858;42.714;23.180;2023-02-12T07:23:33;95375.97;;;3.22;62.63
21395;BME280;10858;42.714;23.180;2023-02-12T07:26:02;95380.28;;;3.23;61.72
21395;BME280;10858;42.714;23.180;2023-02-12T07:28:28;95387.63;;;3.15;61.43
21395;BME280;10858;42.714;23.180;2023-02-12T07:31:05;95386.22;;;3.27;61.96
21395;BME280;10858;42.714;23.180;2023-02-12T07:33:32;95385.41;;;3.45;60.91
21395;BME280;10858;42.714;23.180;2023-02-12T07:36:03;95391.41;;;3.49;60.40
21395;BME280;10858;42.714;23.180;2023-02-12T07:38:29;95398.72;;;3.79;60.28
21395;BME280;10858;42.714;23.180;2023-02-12T07:41:05;95391.41;;;4.04;59.09
21395;BME280;10858;42.714;23.180;2023-02-12T07:43:31;95393.56;;;3.96;59.46
21395;BME280;10858;42.714;23.180;2023-02-12T07:48:34;95404.31;;;4.09;59.33
21395;BME280;10858;42.714;23.180;2023-02-12T07:51:05;95401.19;;;4.01;60.05
21395;BME280;10858;42.714;23.180;2023-02-12T07:53:32;95403.41;;;3.73;61.08
21395;BME280;10858;42.714;23.180;2023-02-12T07:56:25;95411.75;;;3.23;62.53
21395;BME280;10858;42.714;23.180;2023-02-12T07:58:56;95412.41;;;3.28;62.58
21395;BME280;10858;42.714;23.180;2023-02-12T08:01:27;95414.03;;;3.31;62.65
21395;BME280;10858;42.714;23.180;2023-02-12T08:04:05;95413.81;;;3.35;62.22
21395;BME280;10858;42.714;23.180;2023-02-12T08:06:33;95416.25;;;3.40;62.35
21395;BME280;10858;42.714;23.180;2023-02-12T08:09:02;95413.09;;;3.52;61.91
21395;BME280;10858;42.714;23.180;2023-02-12T08:11:29;95409.56;;;3.72;61.59
21395;BME280;10858;42.714;23.180;2023-02-12T08:13:57;95419.97;;;3.73;60.91
21395;BME280;10858;42.714;23.180;2023-02-12T08:16:25;95418.72;;;3.82;60.74
21395;BME280;10858;42.714;23.180;2023-02-12T08:18:51;95418.38;;;3.71;61.18
21395;BME280;10858;42.714;23.180;2023-02-12T08:21:20;95413.44;;;3.63;61.38
21395;BME280;10858;42.714;23.180;2023-02-12T08:23:48;95425.53;;;3.28;62.82
21395;BME280;10858;42.714;23.180;2023-02-12T08:28:51;95435.50;;;3.39;62.58
21395;BME280;10858;42.714;23.180;2023-02-12T08:31:24;95447.66;;;3.41;62.40
21395;BME280;10858;42.714;23.180;2023-02-12T08:33:52;95441.00;;;3.34;62.76
21395;BME280;10858;42.714;23.180;2023-02-12T08:36:23;95447.38;;;2.87;63.55
21395;BME280;10858;42.714;23.180;2023-02-12T08:38:50;95458.19;;;2.80;64.75
21395;BME280;10858;42.714;23.180;2023-02-12T08:41:21;95451.13;;;2.60;65.41
21395;BME280;10858;42.714;23.180;2023-02-12T08:43:48;95449.34;;;2.60;65.71
21395;BME280;10858;42.714;23.180;2023-02-12T08:46:17;95443.38;;;2.57;66.06
21395;BME280;10858;42.714;23.180;2023-02-12T08:48:44;95451.50;;;2.51;66.18
21395;BME280;10858;42.714;23.180;2023-02-12T08:51:19;95457.38;;;2.78;65.68
21395;BME280;10858;42.714;23.180;2023-02-12T08:53:47;95457.56;;;2.73;65.48
21395;BME280;10858;42.714;23.180;2023-02-12T08:56:17;95456.84;;;2.70;66.50
21395;BME280;10858;42.714;23.180;2023-02-12T08:58:44;95466.94;;;3.00;65.50
21395;BME280;10858;42.714;23.180;2023-02-12T09:01:13;95473.00;;;3.01;65.62
21395;BME280;10858;42.714;23.180;2023-02-12T09:03:41;95468.63;;;3.01;65.64
21395;BME280;10858;42.714;23.180;2023-02-12T09:06:08;95467.19;;;2.94;66.13
21395;BME280;10858;42.714;23.180;2023-02-12T09:08:36;95470.09;;;3.08;65.26
21395;BME280;10858;42.714;23.180;2023-02-12T09:11:11;95474.41;;;3.29;64.36
21395;BME280;10858;42.714;23.180;2023-02-12T09:13:38;95470.47;;;3.39;64.72
21395;BME280;10858;42.714;23.180;2023-02-12T09:16:06;95484.00;;;3.51;63.77
21395;BME280;10858;42.714;23.180;2023-02-12T09:18:33;95483.78;;;3.94;62.83
21395;BME280;10858;42.714;23.180;2023-02-12T09:21:02;95486.72;;;3.68;63.09
21395;BME280;10858;42.714;23.180;2023-02-12T09:23:28;95479.91;;;3.23;64.29
21395;BME280;10858;42.714;23.180;2023-02-12T09:25:55;95479.25;;;3.59;63.90
21395;BME280;10858;42.714;23.180;2023-02-12T09:28:21;95486.34;;;3.36;64.77
21395;BME280;10858;42.714;23.180;2023-02-12T09:30:47;95479.97;;;3.42;64.35
21395;BME280;10858;42.714;23.180;2023-02-12T09:33:13;95472.44;;;3.34;64.60
21395;BME280;10858;42.714;23.180;2023-02-12T09:35:40;95468.00;;;3.16;64.99
21395;BME280;10858;42.714;23.180;2023-02-12T09:38:06;95478.38;;;2.98;65.79
21395;BME280;10858;42.714;23.180;2023-02-12T09:46:41;95480.75;;;3.24;64.45
21395;BME280;10858;42.714;23.180;2023-02-12T09:52:00;95483.06;;;3.31;64.57
21395;BME280;10858;42.714;23.180;2023-02-12T09:54:34;95484.09;;;3.27;64.65
21395;BME280;10858;42.714;23.180;2023-02-12T09:57:06;95488.22;;;3.33;64.88
21395;BME280;10858;42.714;23.180;2023-02-12T09:59:50;95499.44;;;3.16;64.96
21395;BME280;10858;42.714;23.180;2023-02-12T10:02:19;95503.81;;;2.96;66.29
21395;BME280;10858;42.714;23.180;2023-02-12T10:04:47;95502.69;;;3.01;66.17
21395;BME280;10858;42.714;23.180;2023-02-12T10:20:47;95496.94;;;3.33;65.49
21395;BME280;10858;42.714;23.180;2023-02-12T10:24:18;95495.69;;;3.82;63.89
21395;BME280;10858;42.714;23.180;2023-02-12T10:26:48;95499.00;;;4.24;62.54
21395;BME280;10858;42.714;23.180;2023-02-12T10:29:41;95493.81;;;4.04;63.56
21395;BME280;10858;42.714;23.180;2023-02-12T10:32:28;95501.97;;;4.54;62.32
21395;BME280;10858;42.714;23.180;2023-02-12T10:34:56;95485.34;;;4.72;61.11
21395;BME280;10858;42.714;23.180;2023-02-12T10:37:48;95490.47;;;4.92;60.65
21395;BME280;10858;42.714;23.180;2023-02-12T10:40:30;95488.59;;;6.30;56.83
21395;BME280;10858;42.714;23.180;2023-02-12T10:43:00;95475.41;;;7.53;54.57
21395;BME280;10858;42.714;23.180;2023-02-12T10:45:33;95474.72;;;7.93;52.63
21395;BME280;10858;42.714;23.180;2023-02-12T10:58:34;95472.13;;;7.63;52.40
21395;BME280;10858;42.714;23.180;2023-02-12T11:01:01;95484.09;;;7.10;52.90
21395;BME280;10858;42.714;23.180;2023-02-12T11:03:32;95483.88;;;6.67;54.84
21395;BME280;10858;42.714;23.180;2023-02-12T11:06:18;95488.97;;;6.39;54.21
21395;BME280;10858;42.714;23.180;2023-02-12T11:08:45;95491.91;;;6.18;55.67
21395;BME280;10858;42.714;23.180;2023-02-12T11:11:27;95491.19;;;6.31;54.79
21395;BME280;10858;42.714;23.180;2023-02-12T11:14:15;95487.78;;;6.60;55.10
21395;BME280;10858;42.714;23.180;2023-02-12T11:16:54;95480.13;;;6.71;53.71
21395;BME280;10858;42.714;23.180;2023-02-12T11:19:23;95480.97;;;6.41;55.65
21395;BME280;10858;42.714;23.180;2023-02-12T11:21:50;95489.81;;;6.86;53.71
21395;BME280;10858;42.714;23.180;2023-02-12T11:26:51;95490.66;;;7.03;53.50
21395;BME280;10858;42.714;23.180;2023-02-12T11:29:20;95491.63;;;6.55;54.57
21395;BME280;10858;42.714;23.180;2023-02-12T11:32:04;95481.91;;;7.32;52.27
21395;BME280;10858;42.714;23.180;2023-02-12T11:34:33;95477.91;;;7.84;52.21
21395;BME280;10858;42.714;23.180;2023-02-12T11:37:00;95487.97;;;8.49;49.78
21395;BME280;10858;42.714;23.180;2023-02-12T11:39:33;95487.56;;;8.13;49.78
21395;BME280;10858;42.714;23.180;2023-02-12T11:42:22;95493.22;;;7.93;50.84
21395;BME280;10858;42.714;23.180;2023-02-12T11:44:54;95483.22;;;7.25;52.36
21395;BME280;10858;42.714;23.180;2023-02-12T11:47:24;95495.03;;;6.72;53.25
21395;BME280;10858;42.714;23.180;2023-02-12T11:50:06;95496.94;;;7.16;52.05
21395;BME280;10858;42.714;23.180;2023-02-12T11:52:35;95489.91;;;6.69;53.43
21395;BME280;10858;42.714;23.180;2023-02-12T11:55:17;95489.63;;;6.89;53.89
21395;BME280;10858;42.714;23.180;2023-02-12T11:57:48;95486.34;;;6.70;54.13
21395;BME280;10858;42.714;23.180;2023-02-12T12:00:25;95491.09;;;6.79;54.54
21395;BME280;10858;42.714;23.180;2023-02-12T12:03:12;95484.34;;;7.50;52.10
21395;BME280;10858;42.714;23.180;2023-02-12T12:05:51;95485.16;;;7.37;51.83
21395;BME280;10858;42.714;23.180;2023-02-12T12:08:28;95490.25;;;7.40;50.76
21395;BME280;10858;42.714;23.180;2023-02-12T12:13:37;95490.91;;;7.73;51.38
21395;BME280;10858;42.714;23.180;2023-02-12T12:16:33;95495.91;;;6.25;55.00
21395;BME280;10858;42.714;23.180;2023-02-12T12:24:58;95505.66;;;6.71;54.83
21395;BME280;10858;42.714;23.180;2023-02-12T12:28:15;95505.88;;;7.13;53.89
21395;BME280;10858;42.714;23.180;2023-02-12T12:31:01;95501.03;;;7.06;53.75
21395;BME280;10858;42.714;23.180;2023-02-12T12:39:03;95504.81;;;6.70;53.99
21395;BME280;10858;42.714;23.180;2023-02-12T12:44:12;95493.31;;;6.08;55.77
21395;BME280;10858;42.714;23.180;2023-02-12T12:52:27;95510.31;;;5.68;57.07
21395;BME280;10858;42.714;23.180;2023-02-12T13:06:17;95524.25;;;5.70;57.01
21395;BME280;10858;42.714;23.180;2023-02-12T13:14:37;95531.38;;;6.02;56.62
21395;BME280;10858;42.714;23.180;2023-02-12T13:17:10;95533.19;;;5.84;57.36
21395;BME280;10858;42.714;23.180;2023-02-12T13:22:31;95542.81;;;6.18;56.44
21395;BME280;10858;42.714;23.180;2023-02-12T13:25:29;95542.47;;;6.72;54.78
21395;BME280;10858;42.714;23.180;2023-02-12T13:28:01;95538.41;;;6.67;54.91
21395;BME280;10858;42.714;23.180;2023-02-12T13:30:41;95538.97;;;6.87;54.44
21395;BME280;10858;42.714;23.180;2023-02-12T13:33:19;95543.00;;;6.79;54.22
21395;BME280;10858;42.714;23.180;2023-02-12T13:35:50;95544.72;;;5.99;56.59
21395;BME280;10858;42.714;23.180;2023-02-12T13:38:47;95544.41;;;6.05;55.47
21395;BME280;10858;42.714;23.180;2023-02-12T13:41:11;95542.34;;;6.10;56.10
21395;BME280;10858;42.714;23.180;2023-02-12T13:49:16;95547.53;;;6.12;56.37
21395;BME280;10858;42.714;23.180;2023-02-12T13:51:49;95545.84;;;6.43;55.21
21395;BME280;10858;42.714;23.180;2023-02-12T13:57:19;95550.50;;;6.38;54.97
21395;BME280;10858;42.714;23.180;2023-02-12T13:59:53;95557.59;;;6.21;55.65
21395;BME280;10858;42.714;23.180;2023-02-12T14:02:40;95554.78;;;6.41;55.04
21395;BME280;10858;42.714;23.180;2023-02-12T14:05:26;95557.66;;;6.36;55.35
21395;BME280;10858;42.714;23.180;2023-02-12T14:07:56;95564.69;;;6.68;54.80
21395;BME280;10858;42.714;23.180;2023-02-12T14:10:33;95563.16;;;6.80;54.63
21395;BME280;10858;42.714;23.180;2023-02-12T14:15:41;95576.38;;;5.97;56.40
21395;BME280;10858;42.714;23.180;2023-02-12T14:18:32;95585.81;;;6.01;56.46
21395;BME280;10858;42.714;23.180;2023-02-12T14:23:38;95581.53;;;5.82;56.73
21395;BME280;10858;42.714;23.180;2023-02-12T14:26:14;95586.72;;;5.85;56.76
21395;BME280;10858;42.714;23.180;2023-02-12T14:29:03;95587.78;;;5.45;58.54
21395;BME280;10858;42.714;23.180;2023-02-12T14:31:36;95588.38;;;5.86;57.47
21395;BME280;10858;42.714;23.180;2023-02-12T14:39:00;95597.69;;;6.10;56.77
21395;BME280;10858;42.714;23.180;2023-02-12T14:41:30;95611.28;;;6.35;56.26
21395;BME280;10858;42.714;23.180;2023-02-12T14:54:49;95615.81;;;5.63;58.60
21395;BME280;10858;42.714;23.180;2023-02-12T14:57:26;95626.06;;;5.34;60.09
21395;BME280;10858;42.714;23.180;2023-02-12T14:59:56;95622.66;;;5.32;59.41
21395;BME280;10858;42.714;23.180;2023-02-12T15:02:26;95629.16;;;5.25;59.99
21395;BME280;10858;42.714;23.180;2023-02-12T15:04:57;95626.13;;;5.51;59.60
21395;BME280;10858;42.714;23.180;2023-02-12T15:10:18;95639.03;;;5.19;60.13
21395;BME280;10858;42.714;23.180;2023-02-12T15:15:44;95650.19;;;5.25;60.36
21395;BME280;10858;42.714;23.180;2023-02-12T15:18:34;95657.06;;;4.71;62.07
21395;BME280;10858;42.714;23.180;2023-02-12T15:21:23;95656.22;;;4.52;62.65
21395;BME280;10858;42.714;23.180;2023-02-12T15:24:07;95664.34;;;4.46;63.16
21395;BME280;10858;42.714;23.180;2023-02-12T15:26:42;95661.75;;;4.26;64.19
21395;BME280;10858;42.714;23.180;2023-02-12T15:31:59;95676.78;;;4.43;64.16
21395;BME280;10858;42.714;23.180;2023-02-12T15:34:30;95682.06;;;4.61;63.79
21395;BME280;10858;42.714;23.180;2023-02-12T15:37:01;95682.22;;;4.38;63.95
21395;BME280;10858;42.714;23.180;2023-02-12T15:39:36;95689.50;;;4.52;63.72
21395;BME280;10858;42.714;23.180;2023-02-12T15:42:04;95681.50;;;4.55;63.91
21395;BME280;10858;42.714;23.180;2023-02-12T15:44:47;95690.75;;;4.43;64.08
21395;BME280;10858;42.714;23.180;2023-02-12T15:47:14;95705.28;;;4.31;64.76
21395;BME280;10858;42.714;23.180;2023-02-12T15:49:42;95715.53;;;4.38;64.73
21395;BME280;10858;42.714;23.180;2023-02-12T15:52:23;95707.00;;;4.32;64.67
21395;BME280;10858;42.714;23.180;2023-02-12T15:54:58;95706.41;;;4.26;64.45
21395;BME280;10858;42.714;23.180;2023-02-12T15:57:26;95708.75;;;4.12;65.13
21395;BME280;10858;42.714;23.180;2023-02-12T15:59:54;95716.72;;;4.30;64.91
21395;BME280;10858;42.714;23.180;2023-02-12T16:02:26;95714.28;;;4.26;64.30
21395;BME280;10858;42.714;23.180;2023-02-12T16:04:54;95722.41;;;4.20;64.99
21395;BME280;10858;42.714;23.180;2023-02-12T16:07:21;95735.53;;;4.20;64.96
21395;BME280;10858;42.714;23.180;2023-02-12T16:09:49;95736.44;;;4.19;64.82
21395;BME280;10858;42.714;23.180;2023-02-12T16:12:19;95746.13;;;3.97;65.66
21395;BME280;10858;42.714;23.180;2023-02-12T16:14:52;95739.28;;;3.93;66.20